Time;durP1;ratioP1;P1;durP2;ratioP2;P2;SDS_P1;SDS_P2;PMS_P1;PMS_P2;Temp;Humidity;BMP_temperature;BMP_pressure;BME280_temperature;BME280_humidity;BME280_pressure;Samples;Min_cycle;Max_cycle;Signal;HPM_P1;HPM_P2
2021/10/23 00:01:18;;;;;;;13.05;3.90;;;12.80;99.90;;;13.09;63.73;102348.69;4843860;29;20492;-73
2021/10/23 00:03:47;;;;;;;8.93;4.05;;;12.70;99.90;;;13.09;63.90;102348.69;4843511;29;20477;-73
2021/10/23 00:06:17;;;;;;;12.18;3.72;;;12.70;99.90;;;13.10;63.86;102350.50;4843457;29;20116;-74
2021/10/23 00:08:45;;;;;;;9.83;4.00;;;12.70;99.90;;;13.07;64.26;102347.78;4843490;29;20046;-73
2021/10/23 00:11:14;;;;;;;13.23;4.57;;;12.70;99.90;;;13.07;64.76;102349.56;4843358;29;20112;-73
2021/10/23 00:13:42;;;;;;;9.07;3.92;;;12.70;99.90;;;13.13;64.69;102341.63;4843827;29;20054;-73
2021/10/23 00:16:11;;;;;;;12.27;4.43;;;12.70;99.90;;;13.19;64.63;102344.34;4843312;29;20045;-73
2021/10/23 00:18:39;;;;;;;10.88;4.25;;;12.80;99.90;;;13.17;64.27;102336.38;4843258;29;20489;-73
2021/10/23 00:21:08;;;;;;;8.88;3.92;;;12.80;99.90;;;13.21;63.98;102348.81;4843362;29;20081;-73
2021/10/23 00:23:38;;;;;;;10.45;4.30;;;12.80;99.90;;;13.11;66.58;102344.28;4843689;29;20054;-73
2021/10/23 00:26:06;;;;;;;10.33;4.20;;;12.80;99.90;;;12.72;67.59;102312.00;4842205;29;20110;-73
2021/10/23 00:28:35;;;;;;;11.13;4.47;;;12.60;99.90;;;12.85;65.92;102355.50;4841979;29;20128;-73
2021/10/23 00:31:04;;;;;;;10.98;4.13;;;12.50;99.90;;;12.93;65.79;102352.03;4843243;29;20048;-73
2021/10/23 00:33:33;;;;;;;11.90;4.03;;;12.60;99.90;;;13.02;65.49;102359.22;4843315;29;20077;-73
2021/10/23 00:36:02;;;;;;;12.32;4.10;;;12.60;99.90;;;12.85;65.39;102345.78;4842013;29;20545;-73
2021/10/23 00:38:30;;;;;;;6.88;4.10;;;12.60;99.90;;;12.90;64.86;102346.72;4842991;29;20057;-73
2021/10/23 00:41:00;;;;;;;8.18;4.10;;;12.60;99.90;;;12.46;64.46;102294.94;4843171;29;20049;-74
2021/10/23 00:43:29;;;;;;;9.10;3.78;;;12.40;99.90;;;12.44;64.77;102332.06;4841948;29;20054;-73
2021/10/23 00:45:57;;;;;;;13.75;4.07;;;12.30;99.90;;;12.54;64.92;102354.31;4843132;29;20480;-73
2021/10/23 00:48:26;;;;;;;8.75;3.67;;;12.20;99.90;;;12.49;65.01;102353.34;4842839;29;20590;-73
2021/10/23 00:50:54;;;;;;;10.27;4.30;;;12.10;99.90;;;12.32;65.24;102334.59;4842967;29;20046;-73
2021/10/23 00:53:23;;;;;;;11.80;4.78;;;12.10;99.90;;;12.14;65.82;102317.53;4842770;29;20496;-74
2021/10/23 00:55:51;;;;;;;11.45;4.28;;;12.00;99.90;;;11.53;65.73;102295.50;4842706;29;20113;-73
2021/10/23 00:58:21;;;;;;;11.32;4.22;;;11.90;99.90;;;12.20;65.86;102350.34;4842435;29;20050;-73
2021/10/23 01:00:49;;;;;;;13.47;4.67;;;11.90;99.90;;;12.03;66.02;102308.56;4842951;29;20054;-73
2021/10/23 01:03:18;;;;;;;12.02;4.05;;;11.80;99.90;;;12.08;66.31;102357.25;4842781;29;20124;-73
2021/10/23 01:05:47;;;;;;;10.30;3.83;;;11.80;99.90;;;12.13;66.44;102342.28;4842602;29;20100;-73
2021/10/23 01:08:15;;;;;;;8.00;3.88;;;11.80;99.90;;;12.07;67.10;102340.44;4842955;29;20107;-73
2021/10/23 01:10:44;;;;;;;8.82;4.28;;;11.70;99.90;;;12.00;67.59;102341.22;4842450;29;20069;-73
2021/10/23 01:13:13;;;;;;;9.43;3.72;;;11.60;99.90;;;12.06;68.26;102357.22;4842595;29;20054;-73
2021/10/23 01:15:42;;;;;;;9.95;3.60;;;11.70;99.90;;;12.10;68.75;102358.19;4842745;29;20106;-73
2021/10/23 01:18:11;;;;;;;11.93;3.93;;;11.70;99.90;;;12.03;69.05;102365.16;4841471;29;20062;-73
2021/10/23 01:20:40;;;;;;;7.45;3.72;;;11.70;99.90;;;12.01;69.02;102361.59;4842355;29;20423;-73
2021/10/23 01:23:09;;;;;;;13.57;4.10;;;11.60;99.90;;;12.05;69.10;102359.84;4842975;29;20054;-73
2021/10/23 01:25:37;;;;;;;9.93;4.03;;;11.60;99.90;;;11.26;68.67;102196.16;4842347;29;20045;-73
2021/10/23 01:28:06;;;;;;;12.43;4.60;;;11.70;99.90;;;12.25;68.56;102353.94;4842340;29;20572;-73
2021/10/23 01:30:35;;;;;;;7.15;3.80;;;11.80;99.90;;;12.22;68.03;102340.63;4842511;29;20042;-73
2021/10/23 01:33:03;;;;;;;12.98;4.68;;;11.90;99.90;;;12.38;67.76;102355.00;4842330;29;20041;-73
2021/10/23 01:35:32;;;;;;;8.18;3.70;;;12.00;99.90;;;12.37;67.82;102356.75;4842305;29;20094;-73
2021/10/23 01:38:02;;;;;;;10.93;3.83;;;12.00;99.90;;;12.29;68.51;102352.22;4842788;29;20054;-73
2021/10/23 01:40:33;;;;;;;8.95;3.50;;;12.00;99.90;;;12.06;69.25;102345.75;4842487;29;20393;-73
2021/10/23 01:43:03;;;;;;;9.10;3.88;;;11.80;99.90;;;11.79;69.86;102325.91;4841292;29;20062;-73
2021/10/23 01:45:33;;;;;;;9.73;3.42;;;11.60;99.90;;;11.78;69.76;102321.50;4840876;29;20085;-73
2021/10/23 01:48:02;;;;;;;14.57;4.50;;;11.50;99.90;;;11.82;68.66;102337.44;4842457;29;20054;-73
2021/10/23 01:50:30;;;;;;;12.75;4.13;;;11.40;99.90;;;11.76;68.07;102344.44;4842279;29;20073;-73
2021/10/23 01:53:00;;;;;;;14.38;4.13;;;11.40;99.90;;;11.69;68.10;102347.88;4843706;29;20049;-73
2021/10/23 01:55:29;;;;;;;12.13;3.70;;;11.30;99.90;;;11.39;68.20;102306.72;4846396;29;20050;-73
2021/10/23 01:57:58;;;;;;;13.02;4.88;;;11.30;99.90;;;11.50;68.12;102343.13;4844796;29;20042;-72
2021/10/23 02:00:26;;;;;;;12.50;5.03;;;11.30;99.90;;;11.58;68.92;102341.47;4844743;29;20524;-73
2021/10/23 02:02:55;;;;;;;10.65;4.38;;;11.30;99.90;;;11.71;68.32;102338.19;4844719;29;20064;-73
2021/10/23 02:05:24;;;;;;;11.20;4.55;;;11.40;99.90;;;11.72;68.76;102324.06;4845622;29;20515;-73
2021/10/23 02:07:52;;;;;;;10.50;4.57;;;11.50;99.90;;;11.90;68.35;102349.06;4844566;29;20440;-73
2021/10/23 02:10:22;;;;;;;8.13;4.15;;;11.50;99.90;;;11.86;68.42;102349.88;4845562;29;20056;-73
2021/10/23 02:12:51;;;;;;;10.67;4.10;;;11.50;99.90;;;11.83;68.53;102348.06;4844465;29;20050;-73
2021/10/23 02:15:19;;;;;;;13.32;4.03;;;11.50;99.90;;;11.55;68.59;102312.31;4845717;29;20140;-73
2021/10/23 02:17:48;;;;;;;8.13;3.92;;;11.50;99.90;;;11.55;69.01;102345.84;4846027;29;20431;-73
2021/10/23 02:20:16;;;;;;;11.05;4.38;;;11.40;99.90;;;11.55;69.32;102348.50;4845585;29;20050;-73
2021/10/23 02:22:45;;;;;;;9.07;3.72;;;11.20;99.90;;;11.47;69.61;102347.50;4845281;29;20054;-73
2021/10/23 02:25:13;;;;;;;12.70;4.18;;;11.10;99.90;;;11.32;69.95;102337.56;4845519;29;20572;-73
2021/10/23 02:27:43;;;;;;;8.80;4.32;;;11.00;99.90;;;11.03;70.28;102303.50;4844288;29;20106;-73
2021/10/23 02:30:12;;;;;;;8.33;4.20;;;10.90;99.90;;;11.15;70.36;102352.25;4845769;29;20049;-73
2021/10/23 02:32:41;;;;;;;8.45;4.10;;;10.80;99.90;;;11.09;70.99;102356.56;4845293;29;20057;-73
2021/10/23 02:35:10;;;;;;;11.80;4.07;;;10.70;99.90;;;10.98;71.09;102337.84;4845102;29;20500;-73
2021/10/23 02:37:39;;;;;;;12.52;4.50;;;10.70;99.90;;;11.04;71.29;102335.28;4845069;29;20411;-73
2021/10/23 02:40:09;;;;;;;10.02;4.65;;;10.70;99.90;;;10.95;71.58;102328.94;4845063;29;20461;-73
2021/10/23 02:42:38;;;;;;;10.95;4.50;;;10.70;99.90;;;10.95;72.04;102339.53;4845079;29;20053;-73
2021/10/23 02:45:10;;;;;;;12.18;4.50;;;10.60;99.90;;;10.95;72.36;102344.84;4845841;29;20084;-73
2021/10/23 02:47:40;;;;;;;11.07;4.70;;;10.60;99.90;;;11.08;72.79;102336.22;4845500;29;20053;-73
2021/10/23 02:50:10;;;;;;;13.13;4.93;;;10.70;99.90;;;11.03;72.37;102328.25;4845097;29;20057;-73
2021/10/23 02:52:39;;;;;;;10.60;4.00;;;10.80;99.90;;;11.20;72.00;102337.34;4844772;29;20133;-73
2021/10/23 02:55:08;;;;;;;9.50;3.90;;;10.90;99.90;;;11.10;71.53;102324.81;4845032;29;20046;-73
2021/10/23 02:57:37;;;;;;;10.00;5.05;;;10.90;99.90;;;11.22;71.34;102332.97;4844657;29;20046;-73
2021/10/23 03:00:10;;;;;;;10.55;3.83;;;10.90;99.90;;;11.09;71.26;102338.91;4845025;29;20046;-73
2021/10/23 03:02:39;;;;;;;15.63;4.85;;;10.80;99.90;;;10.91;71.94;102343.91;4843659;29;20062;-73
2021/10/23 03:05:09;;;;;;;10.20;4.63;;;10.70;99.90;;;10.75;72.30;102333.88;4843158;29;20056;-73
2021/10/23 03:07:38;;;;;;;17.48;4.93;;;10.60;99.90;;;10.78;72.39;102339.25;4844469;29;20444;-73
2021/10/23 03:10:08;;;;;;;9.52;4.75;;;10.50;99.90;;;10.74;72.60;102348.88;4844848;29;20118;-73
2021/10/23 03:12:37;;;;;;;9.30;4.47;;;10.50;99.90;;;10.68;72.76;102343.47;4844652;29;20054;-73
2021/10/23 03:15:09;;;;;;;10.45;4.60;;;10.50;99.90;;;10.78;73.04;102352.50;4845118;29;20461;-73
2021/10/23 03:17:38;;;;;;;9.32;4.43;;;10.50;99.90;;;9.53;73.10;102134.06;4844650;29;20466;-73
2021/10/23 03:20:08;;;;;;;10.27;4.38;;;10.40;99.90;;;10.72;73.09;102349.72;4844334;29;20073;-73
2021/10/23 03:22:36;;;;;;;11.20;5.03;;;10.40;99.90;;;10.52;73.05;102317.59;4843574;29;20581;-73
2021/10/23 03:25:06;;;;;;;7.35;4.40;;;10.40;99.90;;;9.80;73.16;102183.91;4844266;29;20126;-73
2021/10/23 03:27:37;;;;;;;10.15;4.45;;;10.40;99.90;;;10.63;73.30;102338.94;4844520;29;20046;-73
2021/10/23 03:30:09;;;;;;;11.10;5.00;;;10.40;99.90;;;10.65;74.06;102356.66;4844238;29;20094;-73
2021/10/23 03:32:37;;;;;;;13.52;5.32;;;10.40;99.90;;;10.59;74.00;102331.81;4844141;29;20050;-73
2021/10/23 03:35:08;;;;;;;8.63;4.80;;;10.50;99.90;;;10.80;73.65;102353.41;4844682;29;20398;-73
2021/10/23 03:37:36;;;;;;;12.65;4.75;;;10.50;99.90;;;10.78;73.72;102360.44;4844120;29;20098;-73
2021/10/23 03:40:09;;;;;;;9.65;4.53;;;10.50;99.90;;;10.80;73.60;102359.56;4844287;29;20042;-73
2021/10/23 03:42:37;;;;;;;12.93;5.43;;;10.50;99.90;;;10.73;73.74;102359.44;4844018;29;20102;-73
2021/10/23 03:45:10;;;;;;;18.10;5.03;;;10.40;99.90;;;10.72;73.68;102376.19;4843896;29;20042;-73
2021/10/23 03:47:39;;;;;;;11.70;5.03;;;10.50;99.90;;;10.80;74.07;102382.53;4842840;29;20058;-73
2021/10/23 03:50:09;;;;;;;7.82;4.50;;;10.50;99.90;;;10.81;73.45;102366.66;4843800;29;20509;-73
2021/10/23 03:52:38;;;;;;;10.85;4.80;;;10.50;99.90;;;10.90;73.30;102373.88;4844051;29;20083;-73
2021/10/23 03:55:08;;;;;;;11.20;4.50;;;10.60;99.90;;;10.90;73.01;102380.06;4842881;29;20050;-73
2021/10/23 03:57:37;;;;;;;16.90;4.90;;;10.60;99.90;;;10.91;72.95;102380.97;4844187;29;20058;-73
2021/10/23 04:00:08;;;;;;;8.77;4.75;;;10.60;99.90;;;10.99;72.85;102374.06;4843274;29;20085;-73
2021/10/23 04:02:41;;;;;;;13.18;4.80;;;10.60;99.90;;;10.96;72.61;102381.03;4843352;29;20110;-73
2021/10/23 04:05:10;;;;;;;12.68;4.72;;;10.70;99.90;;;10.90;72.76;102401.25;4842781;29;20132;-73
2021/10/23 04:07:38;;;;;;;10.85;4.90;;;10.60;99.90;;;10.92;72.58;102398.63;4842661;29;20068;-73
2021/10/23 04:10:08;;;;;;;8.80;4.55;;;10.60;99.90;;;10.90;72.62;102395.03;4842624;29;20113;-73
2021/10/23 04:12:37;;;;;;;12.27;4.93;;;10.50;99.90;;;10.83;72.59;102395.81;4842555;29;20144;-74
2021/10/23 04:15:07;;;;;;;8.93;4.78;;;10.50;99.90;;;10.48;72.98;102358.06;4841869;29;20110;-73
2021/10/23 04:17:35;;;;;;;12.77;3.97;;;10.40;99.90;;;10.79;72.94;102400.16;4842512;29;20045;-73
2021/10/23 04:20:07;;;;;;;9.10;4.85;;;10.40;99.90;;;10.66;73.20;102392.84;4842749;29;20120;-73
2021/10/23 04:22:36;;;;;;;12.30;4.90;;;10.30;99.90;;;10.68;73.72;102392.88;4841292;29;20057;-73
2021/10/23 04:25:05;;;;;;;9.95;5.13;;;10.30;99.90;;;10.69;73.71;102384.94;4842989;29;20501;-73
2021/10/23 04:27:33;;;;;;;11.82;5.63;;;10.40;99.90;;;10.74;73.75;102385.91;4842416;29;20420;-73
2021/10/23 04:30:02;;;;;;;12.18;5.97;;;10.30;99.90;;;10.77;73.65;102382.44;4842393;29;20509;-73
2021/10/23 04:32:30;;;;;;;9.85;5.25;;;10.40;99.90;;;10.74;73.43;102380.63;4842471;29;20046;-73
2021/10/23 04:34:58;;;;;;;12.63;5.60;;;10.40;99.90;;;10.77;73.94;102387.75;4842568;29;20464;-73
2021/10/23 04:37:28;;;;;;;12.70;5.57;;;10.50;99.90;;;10.81;73.84;102379.00;4842301;29;20056;-73
2021/10/23 04:39:57;;;;;;;11.30;5.32;;;10.50;99.90;;;10.70;74.01;102378.78;4842296;29;20120;-73
2021/10/23 04:42:26;;;;;;;19.50;5.30;;;10.50;99.90;;;10.53;73.91;102340.53;4842378;29;20057;-73
2021/10/23 04:44:54;;;;;;;12.57;5.10;;;10.50;99.90;;;10.69;74.22;102381.41;4842376;29;20102;-73
2021/10/23 04:47:23;;;;;;;13.23;5.43;;;10.50;99.90;;;10.80;73.72;102379.88;4841151;29;20136;-73
2021/10/23 04:49:51;;;;;;;14.48;5.72;;;10.50;99.90;;;10.83;74.02;102393.16;4842096;29;20389;-73
2021/10/23 04:52:19;;;;;;;13.52;5.03;;;10.60;99.90;;;10.83;74.44;102385.22;4841950;29;20045;-73
2021/10/23 04:54:49;;;;;;;16.92;5.55;;;10.60;99.90;;;10.96;74.64;102381.03;4841999;29;20129;-73
2021/10/23 04:57:17;;;;;;;10.65;5.10;;;10.60;99.90;;;11.01;74.82;102382.03;4842041;29;20553;-73
2021/10/23 04:59:46;;;;;;;19.98;5.80;;;10.70;99.90;;;11.10;74.59;102382.16;4806314;29;1083712;-73
2021/10/23 05:02:14;;;;;;;13.95;5.28;;;10.70;99.90;;;11.15;74.48;102401.69;4842904;29;20045;-73
2021/10/23 05:04:43;;;;;;;12.98;5.28;;;10.80;99.90;;;11.14;74.37;102386.66;4842737;29;20046;-73
2021/10/23 05:07:11;;;;;;;15.48;5.65;;;10.80;99.90;;;11.08;74.57;102384.81;4842599;29;20046;-73
2021/10/23 05:09:40;;;;;;;17.83;6.18;;;10.80;99.90;;;10.86;74.70;102354.41;4842714;29;20052;-73
2021/10/23 05:12:09;;;;;;;11.82;5.25;;;10.70;99.90;;;11.10;74.58;102388.38;4842463;29;20058;-73
2021/10/23 05:14:38;;;;;;;16.53;5.70;;;10.80;99.90;;;11.08;74.37;102382.16;4841247;29;20573;-73
2021/10/23 05:17:06;;;;;;;17.15;5.47;;;10.80;99.90;;;11.16;74.92;102401.72;4842341;29;20050;-73
2021/10/23 05:19:35;;;;;;;18.88;5.47;;;10.80;99.90;;;11.14;75.11;102406.09;4842318;29;20053;-73
2021/10/23 05:22:03;;;;;;;17.77;5.85;;;10.70;99.90;;;11.11;75.19;102408.69;4842132;29;20129;-73
2021/10/23 05:24:33;;;;;;;16.83;5.20;;;10.70;99.90;;;11.01;75.45;102416.44;4842384;29;20050;-73
2021/10/23 05:27:01;;;;;;;14.57;5.22;;;10.60;99.90;;;11.08;75.78;102411.28;4841672;29;20125;-73
2021/10/23 05:29:31;;;;;;;11.20;5.43;;;10.70;99.90;;;11.07;75.70;102414.78;4842090;29;20106;-73
2021/10/23 05:31:59;;;;;;;10.68;5.13;;;10.70;99.90;;;11.09;75.95;102418.34;4842162;29;20107;-73
2021/10/23 05:34:28;;;;;;;14.77;5.32;;;10.70;99.90;;;11.13;76.00;102416.66;4841279;29;20054;-73
2021/10/23 05:36:56;;;;;;;11.40;5.43;;;10.70;99.90;;;11.14;76.13;102415.78;4842437;29;20122;-73
2021/10/23 05:39:25;;;;;;;11.25;5.10;;;10.80;99.90;;;10.79;75.88;102354.25;4842427;29;20081;-73
2021/10/23 05:41:53;;;;;;;16.30;6.10;;;10.80;99.90;;;11.17;75.83;102422.03;4842197;29;20050;-73
2021/10/23 05:44:22;;;;;;;13.05;5.38;;;10.80;99.90;;;11.11;75.79;102402.50;4842443;29;20129;-73
2021/10/23 05:46:52;;;;;;;16.65;6.13;;;10.80;99.90;;;11.17;75.79;102416.72;4842065;29;20095;-73
2021/10/23 05:49:20;;;;;;;10.48;4.85;;;10.90;99.90;;;11.20;75.65;102430.06;4842379;29;20081;-73
2021/10/23 05:51:49;;;;;;;12.00;4.80;;;10.90;99.90;;;11.19;75.79;102430.03;4842124;29;20042;-73
2021/10/23 05:54:17;;;;;;;10.68;4.50;;;10.90;99.90;;;10.41;75.32;102295.34;4842183;29;20077;-73
2021/10/23 05:56:45;;;;;;;16.40;5.40;;;10.90;99.90;;;11.12;75.87;102434.31;4842017;29;20042;-73
2021/10/23 05:59:15;;;;;;;15.18;5.63;;;10.90;99.90;;;11.15;76.05;102438.78;4841989;29;20462;-73
2021/10/23 06:01:45;;;;;;;12.27;5.40;;;10.80;99.90;;;11.14;76.26;102443.19;4841956;29;20125;-73
2021/10/23 06:04:16;;;;;;;11.18;5.40;;;10.80;99.90;;;11.18;76.55;102446.75;4842271;29;20054;-73
2021/10/23 06:06:45;;;;;;;8.90;5.00;;;10.80;99.90;;;11.14;76.42;102443.19;4842189;29;20099;-73
2021/10/23 06:09:14;;;;;;;9.00;4.60;;;10.90;99.90;;;11.15;76.19;102455.53;4841919;29;20056;-73
2021/10/23 06:11:42;;;;;;;9.30;4.82;;;10.80;99.90;;;11.17;76.01;102464.41;4842247;29;20295;-73
2021/10/23 06:14:11;;;;;;;8.55;5.10;;;10.80;99.90;;;11.00;76.51;102430.53;4842132;29;20136;-73
2021/10/23 06:16:41;;;;;;;14.32;5.25;;;10.80;99.90;;;11.14;76.81;102447.56;4841967;29;20563;-73
2021/10/23 06:19:10;;;;;;;12.70;5.15;;;10.80;99.90;;;11.16;77.08;102459.09;4840925;29;20057;-73
2021/10/23 06:21:39;;;;;;;11.80;5.53;;;10.80;99.90;;;11.11;77.42;102456.34;4841880;29;20121;-73
2021/10/23 06:24:08;;;;;;;9.90;5.00;;;10.70;99.90;;;11.20;77.34;102469.78;4842307;29;20057;-72
2021/10/23 06:26:36;;;;;;;13.65;5.20;;;10.80;99.90;;;11.21;77.52;102465.34;4842078;29;20137;-73
2021/10/23 06:29:05;;;;;;;11.55;5.30;;;10.80;99.90;;;11.22;77.25;102483.94;4842056;29;20053;-73
2021/10/23 06:31:33;;;;;;;13.05;5.15;;;11.00;99.90;;;11.24;77.07;102447.78;4842031;29;20454;-73
2021/10/23 06:34:01;;;;;;;11.63;4.97;;;11.10;99.90;;;10.78;76.76;102349.84;4841535;29;20096;-73
2021/10/23 06:36:30;;;;;;;8.13;4.57;;;11.10;99.90;;;11.42;77.13;102469.28;4841961;29;20069;-73
2021/10/23 06:39:00;;;;;;;11.30;4.80;;;11.10;99.90;;;11.43;77.27;102479.03;4842962;29;20106;-73
2021/10/23 06:41:30;;;;;;;10.77;4.68;;;11.10;99.90;;;11.33;77.31;102461.19;4845155;29;20425;-73
2021/10/23 06:43:58;;;;;;;9.03;4.40;;;11.10;99.90;;;11.32;77.69;102485.00;4845104;29;20493;-73
2021/10/23 06:46:27;;;;;;;9.25;5.00;;;11.00;99.90;;;11.38;77.60;102486.00;4843982;29;20405;-73
2021/10/23 06:48:55;;;;;;;10.80;4.78;;;11.00;99.90;;;10.66;77.77;102363.75;4845096;29;20132;-73
2021/10/23 06:51:24;;;;;;;12.18;5.05;;;11.00;99.90;;;11.25;77.49;102486.63;4843788;29;20081;-73
2021/10/23 06:53:55;;;;;;;14.90;4.93;;;11.10;99.90;;;11.45;77.78;102485.25;4844724;29;20042;-73
2021/10/23 06:56:25;;;;;;;9.32;4.95;;;11.10;99.90;;;11.39;78.07;102482.50;4845082;29;20105;-73
2021/10/23 06:58:54;;;;;;;8.45;5.03;;;11.10;99.90;;;11.59;77.86;102499.63;4844734;29;20103;-73
2021/10/23 07:01:23;;;;;;;13.40;5.40;;;11.20;99.90;;;11.67;77.80;102483.91;4844477;29;20132;-73
2021/10/23 07:03:52;;;;;;;14.27;5.75;;;11.30;99.90;;;11.61;78.12;102484.63;4844530;29;20053;-73
2021/10/23 07:06:21;;;;;;;12.63;6.20;;;11.40;99.90;;;11.78;78.32;102509.75;4844498;29;20106;-73
2021/10/23 07:08:50;;;;;;;15.38;6.43;;;11.40;99.90;;;11.98;78.59;102507.38;4844652;29;20050;-74
2021/10/23 07:11:22;;;;;;;14.77;6.80;;;11.60;99.90;;;12.04;79.17;102504.84;4843537;29;20054;-73
2021/10/23 07:13:51;;;;;;;17.83;6.45;;;11.60;99.90;;;12.09;79.06;102523.50;4844316;29;20152;-74
2021/10/23 07:16:20;;;;;;;12.47;6.47;;;11.80;99.90;;;12.15;79.14;102497.97;4844806;29;20054;-74
2021/10/23 07:18:48;;;;;;;12.68;6.38;;;11.80;99.90;;;11.90;79.38;102506.41;4844239;29;20294;-73
2021/10/23 07:21:17;;;;;;;10.43;6.35;;;11.80;99.90;;;11.85;79.89;102509.81;4844275;29;20094;-70
2021/10/23 07:23:45;;;;;;;10.40;6.25;;;11.60;99.90;;;11.90;80.09;102516.09;4844409;29;20488;-70
2021/10/23 07:26:14;;;;;;;13.27;7.07;;;11.60;99.90;;;11.95;79.91;102519.72;4844323;29;20049;-70
2021/10/23 07:28:42;;;;;;;14.35;6.97;;;11.60;99.90;;;11.99;79.91;102522.44;4843908;29;20049;-70
2021/10/23 07:31:12;;;;;;;11.70;5.80;;;11.70;99.90;;;11.89;79.76;102499.28;4844500;29;20045;-71
2021/10/23 07:33:40;;;;;;;11.03;6.47;;;11.70;99.90;;;11.79;79.74;102490.28;4844838;29;20105;-69
2021/10/23 07:36:10;;;;;;;12.40;6.00;;;11.80;99.90;;;12.16;80.03;102541.28;4844026;29;20302;-69
2021/10/23 07:38:39;;;;;;;10.98;6.32;;;11.90;99.90;;;12.02;79.59;102498.63;4844229;29;20050;-69
2021/10/23 07:41:07;;;;;;;14.00;6.22;;;11.90;99.90;;;12.12;79.61;102510.25;4843979;29;20060;-69
2021/10/23 07:43:36;;;;;;;13.27;7.57;;;12.00;99.90;;;12.42;79.59;102542.59;4843720;29;20125;-71
2021/10/23 07:46:04;;;;;;;16.25;7.85;;;12.10;99.90;;;12.31;79.38;102509.69;4843725;29;20057;-72
2021/10/23 07:48:35;;;;;;;11.98;7.20;;;12.10;99.90;;;12.54;79.47;102538.31;4844006;29;20473;-72
2021/10/23 07:51:05;;;;;;;12.85;7.60;;;12.20;99.90;;;12.54;79.63;102537.47;4842917;29;20492;-72
2021/10/23 07:53:34;;;;;;;12.27;8.30;;;12.20;99.90;;;12.62;79.98;102541.09;4843632;29;20519;-71
2021/10/23 07:56:03;;;;;;;16.25;9.35;;;12.30;99.90;;;12.66;80.53;102541.16;4843500;29;20045;-72
2021/10/23 07:58:31;;;;;;;13.73;9.10;;;12.30;99.90;;;12.61;80.85;102523.38;4843684;29;20054;-72
2021/10/23 08:01:01;;;;;;;13.60;9.60;;;12.40;99.90;;;12.81;81.47;102550.22;4843973;29;20065;-72
2021/10/23 08:03:30;;;;;;;16.23;10.73;;;12.50;99.90;;;12.47;81.59;102493.09;4843832;29;20050;-72
2021/10/23 08:06:01;;;;;;;20.20;11.32;;;12.50;99.90;;;12.64;82.09;102521.66;4844010;29;20050;-72
2021/10/23 08:08:29;;;;;;;15.52;11.80;;;12.50;99.90;;;12.96;81.95;102555.72;4843458;29;20054;-71
2021/10/23 08:10:59;;;;;;;20.63;12.85;;;12.60;99.90;;;13.00;82.12;102550.47;4843461;29;20465;-72
2021/10/23 08:13:28;;;;;;;20.83;12.60;;;12.70;99.90;;;13.07;81.94;102555.03;4843455;29;20077;-68
2021/10/23 08:15:59;;;;;;;18.00;12.15;;;12.70;99.90;;;12.98;81.86;102538.03;4843074;29;20050;-70
2021/10/23 08:18:29;;;;;;;17.60;12.73;;;12.80;99.90;;;13.16;81.89;102549.81;4843348;29;20049;-68
2021/10/23 08:20:58;;;;;;;19.88;12.73;;;12.90;99.90;;;13.25;81.38;102562.31;4843492;29;20105;-68
2021/10/23 08:23:28;;;;;;;20.45;12.63;;;12.90;99.90;;;13.32;81.25;102570.38;4843216;29;20045;-68
2021/10/23 08:26:01;;;;;;;18.63;11.65;;;13.00;99.90;;;13.38;80.94;102567.81;4842049;29;20060;-68
2021/10/23 08:28:30;;;;;;;17.50;11.18;;;13.10;99.90;;;13.31;80.77;102562.41;4843033;29;20042;-67
2021/10/23 08:30:58;;;;;;;16.17;12.68;;;13.10;99.90;;;13.33;80.93;102576.59;4843323;29;20046;-68
2021/10/23 08:33:27;;;;;;;14.45;11.93;;;13.10;99.90;;;13.27;80.81;102566.78;4842004;29;20401;-70
2021/10/23 08:35:55;;;;;;;16.88;12.30;;;13.00;99.90;;;13.40;80.82;102584.66;4842981;29;20045;-69
2021/10/23 08:38:24;;;;;;;17.33;12.68;;;13.10;99.90;;;13.43;80.60;102591.78;4842647;29;20069;-68
2021/10/23 08:40:55;;;;;;;14.68;11.90;;;13.10;99.90;;;13.41;80.50;102589.09;4843431;29;20081;-66
2021/10/23 08:43:26;;;;;;;15.25;11.80;;;13.10;99.90;;;13.32;80.42;102557.09;4843030;29;20062;-67
2021/10/23 08:45:58;;;;;;;16.20;11.73;;;13.10;99.90;;;13.52;80.39;102586.56;4842718;29;20053;-65
2021/10/23 08:48:27;;;;;;;14.05;11.55;;;13.20;99.90;;;13.48;79.99;102582.09;4842482;29;20126;-66
2021/10/23 08:50:55;;;;;;;13.02;11.15;;;13.10;99.90;;;13.54;80.11;102592.78;4842435;29;20046;-66
2021/10/23 08:53:43;;;;;;;14.82;11.07;;;13.20;99.90;;;13.37;79.79;102560.72;4842709;29;20042;-67
2021/10/23 08:56:13;;;;;;;13.70;10.23;;;13.20;99.90;;;13.48;79.69;102575.00;4842672;29;20046;-74
2021/10/23 08:58:42;;;;;;;14.05;10.07;;;13.20;99.90;;;13.52;79.46;102597.19;4842984;29;20119;-70
2021/10/23 09:01:13;;;;;;;11.53;9.53;;;13.20;99.90;;;13.54;79.41;102596.34;4842339;29;20475;-67
2021/10/23 09:03:44;;;;;;;13.93;9.05;;;13.20;99.90;;;13.56;79.30;102583.06;4842510;29;20103;-70
2021/10/23 09:06:16;;;;;;;14.95;8.43;;;13.30;99.90;;;13.48;78.57;102567.03;4842307;29;20161;-71
2021/10/23 09:09:00;;;;;;;10.63;8.30;;;13.30;99.90;;;13.02;78.83;102481.41;4842533;29;20041;-73
2021/10/23 09:11:31;;;;;;;11.20;7.38;;;13.30;99.90;;;13.54;78.68;102599.00;4842339;29;20052;-71
2021/10/23 09:14:25;;;;;;;9.98;7.07;;;13.30;99.90;;;13.50;78.39;102583.00;4842474;29;20102;-68
2021/10/23 09:17:03;;;;;;;11.35;8.25;;;13.30;99.90;;;13.55;78.22;102584.81;4842880;29;20038;-71
2021/10/23 09:19:38;;;;;;;10.63;6.93;;;13.30;99.90;;;13.36;78.09;102547.38;4842425;29;20513;-70
2021/10/23 09:22:09;;;;;;;14.27;7.90;;;13.30;99.90;;;13.58;78.35;102589.28;4841420;29;20170;-70
2021/10/23 09:24:38;;;;;;;9.38;7.47;;;13.30;99.90;;;13.51;78.44;102561.72;4842547;29;20053;-73
2021/10/23 09:27:16;;;;;;;11.32;6.45;;;13.30;99.90;;;13.65;77.90;102599.09;4842128;29;20095;-74
2021/10/23 09:29:45;;;;;;;8.25;6.43;;;13.40;99.90;;;13.74;78.13;102595.66;4842278;29;20046;-73
2021/10/23 09:32:16;;;;;;;10.27;6.32;;;13.40;99.90;;;13.72;77.42;102594.75;4842174;29;20066;-73
2021/10/23 09:34:44;;;;;;;10.77;6.70;;;13.50;99.90;;;13.77;77.79;102595.69;4840975;29;20140;-73
2021/10/23 09:37:14;;;;;;;11.73;6.75;;;13.50;99.90;;;13.66;78.12;102571.66;4842392;29;20573;-73
2021/10/23 09:39:43;;;;;;;9.63;5.95;;;13.50;99.90;;;13.94;77.97;102605.63;4842377;29;20070;-72
2021/10/23 09:42:16;;;;;;;10.75;6.13;;;13.60;99.90;;;13.91;77.59;102591.41;4842010;29;20046;-73
2021/10/23 09:45:02;;;;;;;11.30;6.47;;;13.70;99.90;;;13.91;77.58;102602.03;4841909;29;20124;-73
2021/10/23 09:47:36;;;;;;;11.10;6.07;;;13.70;99.90;;;13.84;77.01;102603.75;4842286;29;20038;-72
2021/10/23 09:50:14;;;;;;;8.10;5.93;;;13.60;99.90;;;13.80;76.78;102601.06;4842110;29;20070;-72
2021/10/23 09:53:04;;;;;;;11.82;5.80;;;13.60;99.90;;;13.70;76.62;102570.81;4842024;29;20053;-71
2021/10/23 09:55:53;;;;;;;8.85;6.13;;;13.60;99.90;;;13.95;76.66;102611.84;4842341;29;20050;-70
2021/10/23 09:58:24;;;;;;;12.07;6.70;;;13.60;99.90;;;13.80;77.01;102590.41;4842023;29;20133;-72
2021/10/23 10:00:55;;;;;;;12.80;7.13;;;13.70;99.90;;;13.97;76.60;102615.41;4842361;29;20049;-70
2021/10/23 10:03:25;;;;;;;;;;;13.70;99.90;;;14.01;76.18;102625.22;4842548;29;20046;-69
2021/10/23 10:05:55;;;;;;;9.93;7.10;;;13.70;99.90;;;14.00;76.53;102610.09;4842472;29;19932;-70
2021/10/23 10:08:24;;;;;;;12.30;8.02;;;13.70;99.90;;;14.07;76.64;102617.28;4842113;29;20049;-70
2021/10/23 10:10:54;;;;;;;10.45;7.72;;;13.70;99.90;;;14.07;76.91;102619.94;4841929;29;20136;-70
2021/10/23 10:13:26;;;;;;;12.47;8.57;;;13.80;99.90;;;14.07;76.39;102622.59;4842260;29;20053;-69
2021/10/23 10:15:59;;;;;;;12.70;8.88;;;13.80;99.90;;;14.01;76.50;102611.91;4845390;29;20302;-70
2021/10/23 10:18:27;;;;;;;15.10;9.25;;;13.80;99.90;;;14.12;76.72;102611.13;4845673;29;20082;-69